createdAt,value
2022-10-01T00:01:28.178Z,3.93
2022-10-01T00:03:57.105Z,4.40
2022-10-01T00:06:24.921Z,5.65
2022-10-01T00:08:52.751Z,5.15
2022-10-01T00:11:26.366Z,6.53
2022-10-01T00:13:55.258Z,5.80
2022-10-01T00:16:25.055Z,6.70
2022-10-01T00:18:54.392Z,3.63
2022-10-01T00:21:23.869Z,6.68
2022-10-01T00:23:55.619Z,4.90
2022-10-01T00:26:27.193Z,5.30
2022-10-01T00:28:57.399Z,5.75
2022-10-01T00:31:25.942Z,4.18
2022-10-01T00:33:54.400Z,5.72
2022-10-01T00:36:22.380Z,5.93
2022-10-01T00:38:50.191Z,6.20
2022-10-01T00:41:19.357Z,4.50
2022-10-01T00:43:51.149Z,4.18
2022-10-01T00:46:21.776Z,6.07
2022-10-01T00:48:56.041Z,6.28
2022-10-01T00:51:23.872Z,7.10
2022-10-01T00:53:51.458Z,5.85
2022-10-01T00:56:19.861Z,3.70
2022-10-01T00:58:54.244Z,4.88
2022-10-01T01:01:22.015Z,6.90
2022-10-01T01:03:50.130Z,5.78
2022-10-01T01:06:18.327Z,4.63
2022-10-01T01:08:45.996Z,4.50
2022-10-01T01:11:20.289Z,5.90
2022-10-01T01:13:56.741Z,4.55
2022-10-01T01:16:28.098Z,5.47
2022-10-01T01:19:00.245Z,6.45
2022-10-01T01:21:31.090Z,7.30
2022-10-01T01:24:25.004Z,6.68
2022-10-01T01:27:03.456Z,9.15
2022-10-01T01:29:39.406Z,8.50
2022-10-01T01:32:14.813Z,11.70
2022-10-01T01:34:44.833Z,8.65
2022-10-01T01:37:17.489Z,9.13
2022-10-01T01:39:48.985Z,10.43
2022-10-01T01:42:21.436Z,7.50
2022-10-01T01:44:53.199Z,9.60
2022-10-01T01:47:22.407Z,9.35
2022-10-01T01:49:51.710Z,11.00
2022-10-01T01:52:19.864Z,13.65
2022-10-01T01:54:49.694Z,10.20
2022-10-01T01:57:18.470Z,10.73
2022-10-01T01:59:46.366Z,12.45
2022-10-01T02:02:16.749Z,12.35
2022-10-01T02:04:46.960Z,11.90
2022-10-01T02:07:29.373Z,14.50
2022-10-01T02:10:06.196Z,12.70
2022-10-01T02:12:42.056Z,12.93
2022-10-01T02:15:12.867Z,14.88
2022-10-01T02:17:50.658Z,13.73
2022-10-01T02:20:21.665Z,12.25
2022-10-01T02:22:52.905Z,11.98
2022-10-01T02:25:27.177Z,14.30
2022-10-01T02:27:59.261Z,13.10
2022-10-01T02:30:27.494Z,17.42
2022-10-01T02:32:59.521Z,14.63
2022-10-01T02:35:34.651Z,14.38
2022-10-01T02:38:04.366Z,11.82
2022-10-01T02:40:36.361Z,14.80
2022-10-01T02:43:07.773Z,14.37
2022-10-01T02:45:38.271Z,15.23
2022-10-01T02:48:09.366Z,14.20
2022-10-01T02:50:42.365Z,17.15
2022-10-01T02:53:11.772Z,15.27
2022-10-01T02:55:40.691Z,15.43
2022-10-01T02:58:07.904Z,14.75
2022-10-01T03:00:36.280Z,14.02
2022-10-01T03:04:05.741Z,12.88
2022-10-01T03:06:35.946Z,13.98
2022-10-01T03:09:03.937Z,15.55
2022-10-01T03:11:31.902Z,13.57
2022-10-01T03:14:00.931Z,11.40
2022-10-01T03:16:28.687Z,12.32
2022-10-01T03:18:56.505Z,13.07
2022-10-01T03:21:27.381Z,13.70
2022-10-01T03:23:56.301Z,12.20
2022-10-01T03:26:24.073Z,12.25
2022-10-01T03:28:51.878Z,11.82
2022-10-01T03:31:19.445Z,11.73
2022-10-01T03:33:47.763Z,11.00
2022-10-01T03:36:15.548Z,12.05
2022-10-01T03:38:43.072Z,16.20
2022-10-01T03:41:12.155Z,10.77
2022-10-01T03:43:39.934Z,14.23
2022-10-01T03:46:08.030Z,12.05
2022-10-01T03:48:36.262Z,9.68
2022-10-01T03:51:05.274Z,11.25
2022-10-01T03:53:33.056Z,8.48
2022-10-01T03:56:01.124Z,7.68
2022-10-01T03:58:30.082Z,10.05
2022-10-01T04:00:58.260Z,9.02
2022-10-01T04:03:25.860Z,10.98
2022-10-01T04:05:53.487Z,8.50
2022-10-01T04:08:24.343Z,8.50
2022-10-01T04:10:52.742Z,8.43
2022-10-01T04:13:20.557Z,7.05
2022-10-01T04:15:49.680Z,10.23
2022-10-01T04:18:20.823Z,10.02
2022-10-01T04:20:48.990Z,9.68
2022-10-01T04:23:17.213Z,7.40
2022-10-01T04:25:45.631Z,10.35
2022-10-01T04:28:14.448Z,9.07
2022-10-01T04:30:43.388Z,9.47
2022-10-01T04:33:14.578Z,8.43
2022-10-01T04:35:43.223Z,9.73
2022-10-01T04:38:14.231Z,9.03
2022-10-01T04:40:42.212Z,6.47
2022-10-01T04:43:10.562Z,8.20
2022-10-01T04:45:38.497Z,6.18
2022-10-01T04:48:06.233Z,9.85
2022-10-01T04:50:35.134Z,8.52
2022-10-01T04:53:03.339Z,9.10
2022-10-01T04:55:31.960Z,6.82
2022-10-01T04:57:59.468Z,6.63
2022-10-01T05:00:27.862Z,6.50
2022-10-01T05:02:55.944Z,6.97
2022-10-01T05:05:27.093Z,6.28
2022-10-01T05:07:56.432Z,4.90
2022-10-01T05:10:24.998Z,5.25
2022-10-01T05:12:52.952Z,4.65
2022-10-01T05:15:21.097Z,5.40
2022-10-01T05:17:49.186Z,7.53
2022-10-01T05:20:18.697Z,5.53
2022-10-01T05:22:46.526Z,7.55
2022-10-01T05:25:15.545Z,6.40
2022-10-01T05:27:43.439Z,4.68
2022-10-01T05:30:12.251Z,7.50
2022-10-01T05:32:40.728Z,4.35
2022-10-01T05:35:09.646Z,6.75
2022-10-01T05:37:37.201Z,5.00
2022-10-01T05:40:06.520Z,3.40
2022-10-01T05:42:35.631Z,3.08
2022-10-01T05:45:04.391Z,6.15
2022-10-01T05:47:32.735Z,2.58
2022-10-01T05:50:00.390Z,4.43
2022-10-01T05:52:27.876Z,7.05
2022-10-01T05:54:55.569Z,5.97
2022-10-01T05:57:23.106Z,2.80
2022-10-01T05:59:52.392Z,3.17
2022-10-01T06:02:20.224Z,2.38
2022-10-01T06:04:48.037Z,4.00
2022-10-01T06:07:16.187Z,3.58
2022-10-01T06:09:44.898Z,5.10
2022-10-01T06:12:15.413Z,2.40
2022-10-01T06:14:46.759Z,2.83
2022-10-01T06:17:16.785Z,3.50
2022-10-01T06:19:44.624Z,4.50
2022-10-01T06:22:12.742Z,3.40
2022-10-01T06:25:42.211Z,2.25
2022-10-01T06:28:15.032Z,3.92
2022-10-01T06:30:43.775Z,2.92
2022-10-01T06:33:14.783Z,4.30
2022-10-01T06:35:43.852Z,2.97
2022-10-01T06:38:12.173Z,3.63
2022-10-01T06:40:40.283Z,4.20
2022-10-01T06:43:08.536Z,3.17
2022-10-01T06:45:38.965Z,4.15
2022-10-01T06:48:06.699Z,6.43
2022-10-01T06:50:36.332Z,3.40
2022-10-01T06:53:04.019Z,3.00
2022-10-01T06:55:33.341Z,4.20
2022-10-01T06:58:01.825Z,4.63
2022-10-01T07:00:30.768Z,5.25
2022-10-01T07:02:59.676Z,4.35
2022-10-01T07:05:27.879Z,4.20
2022-10-01T07:07:57.016Z,7.40
2022-10-01T07:10:25.525Z,6.93
2022-10-01T07:12:53.636Z,6.00
2022-10-01T07:15:22.599Z,6.35
2022-10-01T07:17:52.160Z,6.70
2022-10-01T07:20:21.276Z,5.53
2022-10-01T07:22:49.972Z,7.10
2022-10-01T07:25:19.304Z,6.90
2022-10-01T07:27:47.215Z,5.07
2022-10-01T07:30:15.023Z,4.35
2022-10-01T07:32:44.892Z,3.00
2022-10-01T07:35:12.642Z,5.25
2022-10-01T07:37:40.397Z,3.60
2022-10-01T07:40:09.717Z,6.18
2022-10-01T07:42:40.059Z,4.40
2022-10-01T07:45:09.143Z,5.10
2022-10-01T07:47:36.650Z,6.53
2022-10-01T07:50:07.008Z,6.85
2022-10-01T07:52:34.760Z,6.57
2022-10-01T07:55:02.902Z,10.43
2022-10-01T07:57:30.430Z,5.95
2022-10-01T07:59:59.517Z,7.88
2022-10-01T08:02:31.033Z,6.45
2022-10-01T08:05:16.376Z,7.40
2022-10-01T08:07:46.272Z,7.53
2022-10-01T08:10:14.707Z,5.35
2022-10-01T08:12:43.261Z,6.85
2022-10-01T08:15:13.793Z,4.27
2022-10-01T08:17:42.476Z,4.15
2022-10-01T08:20:15.785Z,4.60
2022-10-01T08:22:43.443Z,8.38
2022-10-01T08:25:11.410Z,3.80
2022-10-01T08:27:39.947Z,4.18
2022-10-01T08:30:09.853Z,7.20
2022-10-01T08:32:41.425Z,3.55
2022-10-01T08:35:09.704Z,3.23
2022-10-01T08:37:37.471Z,5.43
2022-10-01T08:40:06.105Z,3.97
2022-10-01T08:42:48.734Z,3.47
2022-10-01T08:45:21.215Z,5.65
2022-10-01T08:47:56.666Z,3.63
2022-10-01T08:50:33.200Z,3.65
2022-10-01T08:53:04.872Z,3.00
2022-10-01T08:55:36.444Z,3.00
2022-10-01T08:58:07.114Z,4.53
2022-10-01T09:00:35.526Z,2.33
2022-10-01T09:03:08.707Z,3.43
2022-10-01T09:05:45.345Z,5.38
2022-10-01T09:08:26.122Z,2.20
2022-10-01T09:10:58.006Z,3.38
2022-10-01T09:13:40.591Z,6.78
2022-10-01T09:16:15.733Z,5.20
2022-10-01T09:18:53.180Z,5.35
2022-10-01T09:21:25.868Z,4.70
2022-10-01T09:24:03.849Z,3.43
2022-10-01T09:26:32.168Z,3.42
2022-10-01T09:29:02.147Z,7.60
2022-10-01T09:31:34.988Z,4.97
2022-10-01T09:34:11.319Z,5.95
2022-10-01T09:36:42.734Z,7.05
2022-10-01T09:39:16.111Z,3.35
2022-10-01T09:41:46.179Z,4.65
2022-10-01T09:44:19.008Z,4.15
2022-10-01T09:46:47.096Z,8.13
2022-10-01T09:49:20.684Z,6.30
2022-10-01T09:51:51.237Z,5.88
2022-10-01T09:54:23.320Z,6.83
2022-10-01T09:56:54.966Z,6.25
2022-10-01T09:59:25.626Z,5.47
2022-10-01T10:01:58.851Z,5.35
2022-10-01T10:04:27.953Z,5.68
2022-10-01T10:07:01.222Z,3.90
2022-10-01T10:09:31.746Z,4.78
2022-10-01T10:11:59.731Z,4.05
2022-10-01T10:14:31.171Z,5.17
2022-10-01T10:16:59.261Z,4.13
2022-10-01T10:19:29.202Z,5.03
2022-10-01T10:22:00.615Z,8.70
2022-10-01T10:24:33.062Z,6.00
2022-10-01T10:27:03.817Z,5.63
2022-10-01T10:29:33.477Z,5.68
2022-10-01T10:32:04.783Z,5.95
2022-10-01T10:34:35.398Z,8.35
2022-10-01T10:37:06.103Z,4.53
2022-10-01T10:39:36.116Z,5.25
2022-10-01T10:42:05.866Z,7.63
2022-10-01T10:44:36.299Z,4.68
2022-10-01T10:47:06.616Z,6.65
2022-10-01T10:49:44.275Z,4.32
2022-10-01T10:52:23.849Z,6.75
2022-10-01T10:54:52.444Z,4.20
2022-10-01T10:57:22.293Z,6.00
2022-10-01T10:59:57.238Z,5.90
2022-10-01T11:02:25.797Z,7.07
2022-10-01T11:05:02.759Z,7.50
2022-10-01T11:07:31.261Z,2.92
2022-10-01T11:10:07.433Z,5.53
2022-10-01T11:12:46.030Z,3.90
2022-10-01T11:15:24.259Z,6.50
2022-10-01T11:18:25.284Z,3.53
2022-10-01T11:21:04.556Z,5.15
2022-10-01T11:24:08.990Z,9.40
2022-10-01T11:26:50.549Z,5.85
2022-10-01T11:29:29.367Z,7.30
2022-10-01T11:32:05.589Z,4.85
2022-10-01T11:35:06.639Z,9.30
2022-10-01T11:37:53.239Z,6.10
2022-10-01T11:40:25.072Z,4.90
2022-10-01T11:42:54.431Z,11.75
2022-10-01T11:45:25.301Z,5.45
2022-10-01T11:47:57.204Z,5.27
2022-10-01T11:50:26.798Z,8.73
2022-10-01T11:53:00.037Z,8.18
2022-10-01T11:56:04.738Z,5.03
2022-10-01T11:58:51.281Z,6.22
2022-10-01T12:01:25.868Z,6.75
2022-10-01T12:04:02.718Z,3.75
2022-10-01T12:06:34.503Z,2.80
2022-10-01T12:09:07.400Z,3.15
2022-10-01T12:11:38.836Z,5.15
2022-10-01T12:14:11.959Z,3.30
2022-10-01T12:16:55.656Z,2.15
2022-10-01T12:19:25.592Z,2.97
2022-10-01T12:21:58.307Z,2.15
2022-10-01T12:24:30.311Z,7.00
2022-10-01T12:27:15.742Z,3.47
2022-10-01T12:29:50.671Z,3.33
2022-10-01T12:32:23.947Z,2.38
2022-10-01T12:35:06.979Z,7.32
2022-10-01T12:37:44.777Z,0.40
2022-10-01T12:40:26.616Z,3.45
2022-10-01T12:43:08.174Z,4.00
2022-10-01T12:45:44.493Z,4.23
2022-10-01T12:48:17.754Z,3.05
2022-10-01T12:50:51.340Z,7.43
2022-10-01T12:53:25.970Z,4.63
2022-10-01T12:56:08.888Z,3.30
2022-10-01T12:59:06.440Z,5.93
2022-10-01T13:01:44.724Z,8.52
2022-10-01T13:04:26.870Z,5.65
2022-10-01T13:07:03.338Z,7.35
2022-10-01T13:09:39.593Z,6.03
2022-10-01T13:12:18.136Z,8.38
2022-10-01T13:14:46.485Z,6.00
2022-10-01T13:17:18.696Z,6.97
2022-10-01T13:19:50.066Z,8.13
2022-10-01T13:22:22.272Z,8.80
2022-10-01T13:24:58.522Z,4.85
2022-10-01T13:27:36.436Z,4.43
2022-10-01T13:30:07.711Z,6.70
2022-10-01T13:32:37.234Z,6.88
2022-10-01T13:35:24.304Z,4.95
2022-10-01T13:37:51.975Z,6.10
2022-10-01T13:40:26.697Z,7.68
2022-10-01T13:42:57.842Z,8.48
2022-10-01T13:45:29.526Z,5.10
2022-10-01T13:48:21.440Z,8.48
2022-10-01T13:50:57.409Z,5.55
2022-10-01T13:53:26.826Z,10.23
2022-10-01T13:55:56.714Z,5.60
2022-10-01T13:58:38.736Z,4.78
2022-10-01T14:01:24.686Z,4.93
2022-10-01T14:04:01.188Z,8.70
2022-10-01T14:06:31.745Z,9.65
2022-10-01T14:09:07.282Z,6.30
2022-10-01T14:11:54.392Z,7.75
2022-10-01T14:14:43.025Z,8.10
2022-10-01T14:17:11.170Z,3.28
2022-10-01T14:19:49.411Z,8.02
2022-10-01T14:22:30.035Z,6.40
2022-10-01T14:25:11.572Z,6.30
2022-10-01T14:27:45.406Z,5.60
2022-10-01T14:30:16.849Z,4.75
2022-10-01T14:33:09.331Z,4.03
2022-10-01T14:35:39.887Z,5.15
2022-10-01T14:38:13.825Z,5.50
2022-10-01T14:40:43.171Z,10.15
2022-10-01T14:43:24.100Z,3.58
2022-10-01T14:45:55.147Z,6.18
2022-10-01T14:48:24.712Z,7.07
2022-10-01T14:50:54.512Z,5.10
2022-10-01T14:53:24.851Z,8.73
2022-10-01T14:55:59.746Z,8.13
2022-10-01T14:58:31.228Z,9.25
2022-10-01T15:01:00.419Z,8.05
2022-10-01T15:03:28.423Z,7.47
2022-10-01T15:06:07.906Z,8.00
2022-10-01T15:08:41.881Z,5.78
2022-10-01T15:11:14.254Z,6.50
2022-10-01T15:13:44.537Z,7.13
2022-10-01T15:16:16.538Z,4.80
2022-10-01T15:18:48.194Z,6.18
2022-10-01T15:21:20.263Z,6.00
2022-10-01T15:23:49.280Z,7.30
2022-10-01T15:26:21.766Z,6.55
2022-10-01T15:28:49.691Z,7.10
2022-10-01T15:31:20.236Z,8.37
2022-10-01T15:33:48.884Z,7.65
2022-10-01T15:36:18.901Z,8.40
2022-10-01T15:38:47.598Z,10.32
2022-10-01T15:41:31.561Z,6.75
2022-10-01T15:44:01.162Z,9.43
2022-10-01T15:46:33.648Z,8.75
2022-10-01T15:49:20.367Z,5.43
2022-10-01T15:52:12.162Z,7.35
2022-10-01T15:54:40.876Z,5.07
2022-10-01T15:57:08.999Z,6.32
2022-10-01T15:59:37.576Z,5.73
2022-10-01T16:02:11.341Z,7.85
2022-10-01T16:04:39.399Z,5.30
2022-10-01T16:07:08.163Z,7.28
2022-10-01T16:09:35.690Z,9.57
2022-10-01T16:12:04.752Z,4.55
2022-10-01T16:14:36.689Z,5.17
2022-10-01T16:17:27.823Z,8.15
2022-10-01T16:19:57.850Z,6.88
2022-10-01T16:22:27.508Z,8.23
2022-10-01T16:24:56.424Z,8.18
2022-10-01T16:27:25.842Z,5.35
2022-10-01T16:30:04.739Z,6.47
2022-10-01T16:32:34.968Z,7.70
2022-10-01T16:35:21.030Z,6.75
2022-10-01T16:37:50.251Z,8.07
2022-10-01T16:40:19.085Z,10.40
2022-10-01T16:42:48.085Z,13.15
2022-10-01T16:45:17.953Z,7.35
2022-10-01T16:47:47.486Z,6.53
2022-10-01T16:50:17.056Z,8.68
2022-10-01T16:52:47.027Z,9.97
2022-10-01T16:55:19.273Z,7.95
2022-10-01T16:57:47.688Z,8.85
2022-10-01T17:00:16.505Z,8.38
2022-10-01T17:02:44.229Z,6.15
2022-10-01T17:05:18.049Z,11.25
2022-10-01T17:07:46.022Z,11.57
2022-10-01T17:10:14.088Z,9.50
2022-10-01T17:12:42.784Z,9.90
2022-10-01T17:15:14.151Z,9.13
2022-10-01T17:17:41.684Z,5.53
2022-10-01T17:20:10.243Z,9.07
2022-10-01T17:22:40.004Z,10.37
2022-10-01T17:25:09.346Z,11.00
2022-10-01T17:27:37.125Z,8.32
2022-10-01T17:30:05.282Z,5.68
2022-10-01T17:32:34.124Z,10.30
2022-10-01T17:35:01.856Z,9.52
2022-10-01T17:37:30.777Z,8.65
2022-10-01T17:40:00.243Z,8.77
2022-10-01T17:42:28.078Z,4.33
2022-10-01T17:44:55.803Z,5.53
2022-10-01T17:47:23.772Z,8.13
2022-10-01T17:49:51.399Z,10.27
2022-10-01T17:52:19.644Z,9.02
2022-10-01T17:54:47.292Z,12.15
2022-10-01T17:57:17.513Z,10.88
2022-10-01T17:59:45.465Z,7.00
2022-10-01T18:02:36.643Z,10.70
2022-10-01T18:05:03.574Z,10.38
2022-10-01T18:07:31.269Z,7.70
2022-10-01T18:10:02.473Z,6.95
2022-10-01T18:12:32.924Z,7.15
2022-10-01T18:15:00.744Z,7.65
2022-10-01T18:17:28.520Z,14.55
2022-10-01T18:19:57.609Z,9.90
2022-10-01T18:22:26.710Z,9.75
2022-10-01T18:24:55.087Z,10.70
2022-10-01T18:27:27.221Z,6.85
2022-10-01T18:29:56.364Z,6.90
2022-10-01T18:32:26.345Z,7.83
2022-10-01T18:34:57.862Z,8.43
2022-10-01T18:37:34.880Z,9.40
2022-10-01T18:40:09.515Z,11.25
2022-10-01T18:42:44.238Z,8.23
2022-10-01T18:45:18.390Z,11.38
2022-10-01T18:47:56.090Z,10.02
2022-10-01T18:50:35.741Z,11.43
2022-10-01T18:53:16.101Z,13.00
2022-10-01T18:56:03.860Z,12.80
2022-10-01T18:58:49.174Z,11.37
2022-10-01T19:01:26.417Z,5.50
2022-10-01T19:04:05.863Z,11.27
2022-10-01T19:06:45.324Z,11.63
2022-10-01T19:09:26.692Z,7.78
2022-10-01T19:12:01.448Z,13.07
2022-10-01T19:14:47.372Z,12.67
2022-10-01T19:17:28.130Z,9.32
2022-10-01T19:23:14.458Z,15.27
2022-10-01T19:25:49.457Z,10.82
2022-10-01T19:28:33.739Z,19.95
2022-10-01T19:31:12.688Z,12.02
2022-10-01T19:33:47.190Z,14.18
2022-10-01T19:36:26.594Z,13.48
2022-10-01T19:38:56.866Z,14.95
2022-10-01T19:41:29.684Z,10.82
2022-10-01T19:44:01.390Z,12.80
2022-10-01T19:46:36.711Z,8.25
2022-10-01T19:49:14.587Z,11.63
2022-10-01T19:51:45.845Z,10.68
2022-10-01T19:54:16.925Z,12.82
2022-10-01T19:56:48.657Z,14.00
2022-10-01T19:59:19.704Z,16.88
2022-10-01T20:01:54.867Z,14.85
2022-10-01T20:04:29.287Z,13.43
2022-10-01T20:07:06.132Z,12.15
2022-10-01T20:09:40.400Z,17.25
2022-10-01T20:12:20.508Z,14.18
2022-10-01T20:15:09.931Z,11.23
2022-10-01T20:17:50.029Z,19.13
2022-10-01T20:20:23.500Z,13.82
2022-10-01T20:23:03.124Z,12.52
2022-10-01T20:25:39.419Z,15.85
2022-10-01T20:28:11.597Z,16.08
2022-10-01T20:30:47.239Z,18.83
2022-10-01T20:33:24.133Z,15.85
2022-10-01T20:35:59.117Z,11.20
2022-10-01T20:38:30.468Z,14.00
2022-10-01T20:40:59.380Z,15.73
2022-10-01T20:43:31.393Z,13.80
2022-10-01T20:46:04.766Z,10.32
2022-10-01T20:48:34.881Z,11.43
2022-10-01T20:51:07.454Z,12.45
2022-10-01T20:53:38.834Z,8.02
2022-10-01T20:56:18.172Z,5.53
2022-10-01T20:58:49.762Z,4.97
2022-10-01T21:01:21.554Z,5.88
2022-10-01T21:03:53.309Z,3.22
2022-10-01T21:06:26.066Z,5.63
2022-10-01T21:08:58.175Z,7.88
2022-10-01T21:11:31.073Z,1.07
2022-10-01T21:14:07.532Z,9.20
2022-10-01T21:16:44.570Z,6.65
2022-10-01T21:19:34.312Z,4.13
2022-10-01T21:22:17.130Z,3.83
2022-10-01T21:24:59.245Z,0.98
2022-10-01T21:27:52.468Z,4.72
2022-10-01T21:30:21.320Z,9.35
2022-10-01T21:33:14.837Z,3.25
2022-10-01T21:35:50.277Z,6.97
2022-10-01T21:38:30.260Z,3.80
2022-10-01T21:41:07.907Z,12.20
2022-10-01T21:43:46.780Z,6.57
2022-10-01T21:46:21.528Z,5.40
2022-10-01T21:48:57.908Z,13.32
2022-10-01T21:51:34.647Z,10.68
2022-10-01T21:54:35.602Z,4.83
2022-10-01T21:57:12.072Z,9.27
2022-10-01T21:59:59.195Z,7.70
2022-10-01T22:02:33.647Z,4.47
2022-10-01T22:05:06.508Z,7.47
2022-10-01T22:07:37.180Z,4.40
2022-10-01T22:10:11.207Z,3.93
2022-10-01T22:12:42.802Z,6.47
2022-10-01T22:15:21.182Z,6.13
2022-10-01T22:17:50.618Z,10.73
2022-10-01T22:20:20.462Z,5.78
2022-10-01T22:22:50.853Z,6.45
2022-10-01T22:25:19.418Z,16.42
2022-10-01T22:27:52.032Z,12.05
2022-10-01T22:30:21.673Z,12.10
2022-10-01T22:32:52.296Z,9.45
2022-10-01T22:35:25.788Z,14.57
2022-10-01T22:37:57.292Z,7.65
2022-10-01T22:40:28.708Z,8.18
2022-10-01T22:43:02.368Z,12.45
2022-10-01T22:45:42.632Z,14.05
2022-10-01T22:48:25.737Z,20.15
2022-10-01T22:51:06.335Z,8.45
2022-10-01T22:53:55.793Z,12.88
2022-10-01T22:56:27.262Z,11.50
2022-10-01T22:59:08.289Z,13.07
2022-10-01T23:01:43.592Z,18.03
2022-10-01T23:04:21.811Z,6.07
2022-10-01T23:06:57.397Z,11.55
2022-10-01T23:09:29.165Z,14.90
2022-10-01T23:12:01.941Z,19.77
2022-10-01T23:14:40.816Z,7.47
2022-10-01T23:17:12.308Z,12.60
2022-10-01T23:19:46.582Z,18.23
2022-10-01T23:22:23.854Z,15.20
2022-10-01T23:25:04.613Z,6.70
2022-10-01T23:27:38.741Z,13.45
2022-10-01T23:30:11.822Z,21.73
2022-10-01T23:32:49.845Z,19.95
2022-10-01T23:35:20.657Z,10.77
2022-10-01T23:38:03.468Z,7.87
2022-10-01T23:40:34.171Z,16.65
2022-10-01T23:43:07.744Z,11.87
2022-10-01T23:45:40.250Z,13.00
2022-10-01T23:48:13.759Z,23.30
2022-10-01T23:50:44.393Z,14.40
2022-10-01T23:53:16.415Z,7.78
2022-10-01T23:56:08.172Z,18.85
2022-10-01T23:58:43.686Z,19.85
